sensor_id;sensor_type;location;lat;lon;timestamp;temperature;humidity
23827;DHT22;12094;50.822;4.376;2022-09-09T00:04:31;15.00;99.90
23827;DHT22;12094;50.822;4.376;2022-09-09T00:07:21;15.00;99.90
23827;DHT22;12094;50.822;4.376;2022-09-09T00:10:13;15.00;99.90
23827;DHT22;12094;50.822;4.376;2022-09-09T00:18:24;14.90;99.90
23827;DHT22;12094;50.822;4.376;2022-09-09T00:21:16;14.90;99.90
23827;DHT22;12094;50.822;4.376;2022-09-09T00:23:51;14.90;99.90
23827;DHT22;12094;50.822;4.376;2022-09-09T00:26:45;14.90;99.90
23827;DHT22;12094;50.822;4.376;2022-09-09T00:29:42;14.90;99.90
23827;DHT22;12094;50.822;4.376;2022-09-09T00:32:15;14.90;99.90
23827;DHT22;12094;50.822;4.376;2022-09-09T00:35:29;14.90;99.90
23827;DHT22;12094;50.822;4.376;2022-09-09T00:38:01;14.90;99.90
23827;DHT22;12094;50.822;4.376;2022-09-09T00:40:48;15.00;99.90
23827;DHT22;12094;50.822;4.376;2022-09-09T00:43:29;15.00;99.90
23827;DHT22;12094;50.822;4.376;2022-09-09T00:48:41;15.00;99.90
23827;DHT22;12094;50.822;4.376;2022-09-09T00:51:41;15.10;99.90
23827;DHT22;12094;50.822;4.376;2022-09-09T00:59:47;15.10;99.90
23827;DHT22;12094;50.822;4.376;2022-09-09T01:02:27;15.10;99.90
23827;DHT22;12094;50.822;4.376;2022-09-09T01:05:07;15.20;99.90
23827;DHT22;12094;50.822;4.376;2022-09-09T01:07:37;15.20;99.90
23827;DHT22;12094;50.822;4.376;2022-09-09T01:10:09;15.30;99.90
23827;DHT22;12094;50.822;4.376;2022-09-09T01:12:47;15.30;99.90
23827;DHT22;12094;50.822;4.376;2022-09-09T01:15:24;15.30;99.90
23827;DHT22;12094;50.822;4.376;2022-09-09T01:26:45;15.30;99.90
23827;DHT22;12094;50.822;4.376;2022-09-09T01:29:22;15.30;99.90
23827;DHT22;12094;50.822;4.376;2022-09-09T01:34:27;15.20;99.90
23827;DHT22;12094;50.822;4.376;2022-09-09T01:37:01;15.30;99.90
23827;DHT22;12094;50.822;4.376;2022-09-09T01:39:30;15.40;99.90
23827;DHT22;12094;50.822;4.376;2022-09-09T01:42:09;15.30;99.90
23827;DHT22;12094;50.822;4.376;2022-09-09T01:44:39;15.30;99.90
23827;DHT22;12094;50.822;4.376;2022-09-09T01:47:09;15.30;99.90
23827;DHT22;12094;50.822;4.376;2022-09-09T01:49:56;15.30;99.90
23827;DHT22;12094;50.822;4.376;2022-09-09T01:52:27;15.30;99.90
23827;DHT22;12094;50.822;4.376;2022-09-09T01:54:56;15.30;99.90
23827;DHT22;12094;50.822;4.376;2022-09-09T01:57:37;15.30;99.90
23827;DHT22;12094;50.822;4.376;2022-09-09T02:00:12;15.30;99.90
23827;DHT22;12094;50.822;4.376;2022-09-09T02:03:03;15.20;99.90
23827;DHT22;12094;50.822;4.376;2022-09-09T02:08:59;15.30;99.90
23827;DHT22;12094;50.822;4.376;2022-09-09T02:11:29;15.30;99.90
23827;DHT22;12094;50.822;4.376;2022-09-09T02:14:16;15.30;99.90
23827;DHT22;12094;50.822;4.376;2022-09-09T02:16:55;15.30;99.90
23827;DHT22;12094;50.822;4.376;2022-09-09T02:19:39;15.20;99.90
23827;DHT22;12094;50.822;4.376;2022-09-09T02:22:21;15.30;99.90
23827;DHT22;12094;50.822;4.376;2022-09-09T02:24:50;15.30;99.90
23827;DHT22;12094;50.822;4.376;2022-09-09T02:27:25;15.30;99.90
23827;DHT22;12094;50.822;4.376;2022-09-09T02:29:56;15.30;99.90
23827;DHT22;12094;50.822;4.376;2022-09-09T02:32:35;15.30;99.90
23827;DHT22;12094;50.822;4.376;2022-09-09T02:35:09;15.30;99.90
23827;DHT22;12094;50.822;4.376;2022-09-09T02:37:40;15.30;99.90
23827;DHT22;12094;50.822;4.376;2022-09-09T02:40:11;15.30;99.90
23827;DHT22;12094;50.822;4.376;2022-09-09T02:42:46;15.40;99.90
23827;DHT22;12094;50.822;4.376;2022-09-09T02:45:16;15.30;99.90
23827;DHT22;12094;50.822;4.376;2022-09-09T02:47:50;15.40;99.90
23827;DHT22;12094;50.822;4.376;2022-09-09T02:50:53;15.30;99.90
23827;DHT22;12094;50.822;4.376;2022-09-09T02:53:29;15.40;99.90
23827;DHT22;12094;50.822;4.376;2022-09-09T02:56:08;15.40;99.90
23827;DHT22;12094;50.822;4.376;2022-09-09T02:58:42;15.40;99.90
23827;DHT22;12094;50.822;4.376;2022-09-09T03:01:10;15.40;99.90
23827;DHT22;12094;50.822;4.376;2022-09-09T03:03:38;15.30;99.90
23827;DHT22;12094;50.822;4.376;2022-09-09T03:06:10;15.30;99.90
23827;DHT22;12094;50.822;4.376;2022-09-09T03:08:40;15.30;99.90
23827;DHT22;12094;50.822;4.376;2022-09-09T03:11:18;15.30;99.90
23827;DHT22;12094;50.822;4.376;2022-09-09T03:13:45;15.30;99.90
23827;DHT22;12094;50.822;4.376;2022-09-09T03:16:13;15.30;99.90
23827;DHT22;12094;50.822;4.376;2022-09-09T03:18:45;15.30;99.90
23827;DHT22;12094;50.822;4.376;2022-09-09T03:21:15;15.40;99.90
23827;DHT22;12094;50.822;4.376;2022-09-09T03:23:43;15.30;99.90
23827;DHT22;12094;50.822;4.376;2022-09-09T03:26:14;15.40;99.90
23827;DHT22;12094;50.822;4.376;2022-09-09T03:28:45;15.30;99.90
23827;DHT22;12094;50.822;4.376;2022-09-09T03:31:16;15.20;99.90
23827;DHT22;12094;50.822;4.376;2022-09-09T03:33:46;15.20;99.90
23827;DHT22;12094;50.822;4.376;2022-09-09T03:36:17;15.20;99.90
23827;DHT22;12094;50.822;4.376;2022-09-09T03:38:47;15.20;99.90
23827;DHT22;12094;50.822;4.376;2022-09-09T03:41:15;15.10;99.90
23827;DHT22;12094;50.822;4.376;2022-09-09T03:43:42;15.10;99.90
23827;DHT22;12094;50.822;4.376;2022-09-09T03:46:11;15.10;99.90
23827;DHT22;12094;50.822;4.376;2022-09-09T03:48:38;15.20;99.90
23827;DHT22;12094;50.822;4.376;2022-09-09T03:51:05;15.10;99.90
23827;DHT22;12094;50.822;4.376;2022-09-09T03:53:34;15.10;99.90
23827;DHT22;12094;50.822;4.376;2022-09-09T03:56:03;15.10;99.90
23827;DHT22;12094;50.822;4.376;2022-09-09T03:58:32;15.10;99.90
23827;DHT22;12094;50.822;4.376;2022-09-09T04:01:09;15.10;99.90
23827;DHT22;12094;50.822;4.376;2022-09-09T04:03:39;15.10;99.90
23827;DHT22;12094;50.822;4.376;2022-09-09T04:06:09;15.20;99.90
23827;DHT22;12094;50.822;4.376;2022-09-09T04:08:39;15.20;99.90
23827;DHT22;12094;50.822;4.376;2022-09-09T04:11:07;15.20;99.90
23827;DHT22;12094;50.822;4.376;2022-09-09T04:13:39;15.20;99.90
23827;DHT22;12094;50.822;4.376;2022-09-09T04:16:11;15.20;99.90
23827;DHT22;12094;50.822;4.376;2022-09-09T04:18:42;15.20;99.90
23827;DHT22;12094;50.822;4.376;2022-09-09T04:21:12;15.20;99.90
23827;DHT22;12094;50.822;4.376;2022-09-09T04:23:40;15.30;99.90
23827;DHT22;12094;50.822;4.376;2022-09-09T04:26:09;15.20;99.90
23827;DHT22;12094;50.822;4.376;2022-09-09T04:28:38;15.20;99.90
23827;DHT22;12094;50.822;4.376;2022-09-09T04:31:22;15.20;99.90
23827;DHT22;12094;50.822;4.376;2022-09-09T04:33:56;15.10;99.90
23827;DHT22;12094;50.822;4.376;2022-09-09T04:36:25;15.10;99.90
23827;DHT22;12094;50.822;4.376;2022-09-09T04:38:57;15.20;99.90
23827;DHT22;12094;50.822;4.376;2022-09-09T04:41:29;15.10;99.90
23827;DHT22;12094;50.822;4.376;2022-09-09T04:43:58;15.20;99.90
23827;DHT22;12094;50.822;4.376;2022-09-09T04:46:27;15.10;99.90
23827;DHT22;12094;50.822;4.376;2022-09-09T04:48:54;15.10;99.90
23827;DHT22;12094;50.822;4.376;2022-09-09T04:51:29;15.00;99.90
23827;DHT22;12094;50.822;4.376;2022-09-09T04:53:59;15.00;99.90
23827;DHT22;12094;50.822;4.376;2022-09-09T04:56:27;15.10;99.90
23827;DHT22;12094;50.822;4.376;2022-09-09T04:58:58;15.10;99.90
23827;DHT22;12094;50.822;4.376;2022-09-09T05:01:46;15.10;99.90
23827;DHT22;12094;50.822;4.376;2022-09-09T05:04:14;15.10;99.90
23827;DHT22;12094;50.822;4.376;2022-09-09T05:06:44;15.10;99.90
23827;DHT22;12094;50.822;4.376;2022-09-09T05:09:14;15.10;99.90
23827;DHT22;12094;50.822;4.376;2022-09-09T05:11:43;15.10;99.90
23827;DHT22;12094;50.822;4.376;2022-09-09T05:14:20;15.20;99.90
23827;DHT22;12094;50.822;4.376;2022-09-09T05:16:48;15.20;99.90
23827;DHT22;12094;50.822;4.376;2022-09-09T05:19:18;15.20;99.90
23827;DHT22;12094;50.822;4.376;2022-09-09T05:21:48;15.30;99.90
23827;DHT22;12094;50.822;4.376;2022-09-09T05:24:18;15.30;99.90
23827;DHT22;12094;50.822;4.376;2022-09-09T05:26:48;15.30;99.90
23827;DHT22;12094;50.822;4.376;2022-09-09T05:29:16;15.40;99.90
23827;DHT22;12094;50.822;4.376;2022-09-09T05:31:47;15.30;99.90
23827;DHT22;12094;50.822;4.376;2022-09-09T05:34:19;15.30;99.90
23827;DHT22;12094;50.822;4.376;2022-09-09T05:36:51;15.40;99.90
23827;DHT22;12094;50.822;4.376;2022-09-09T05:39:20;15.40;99.90
23827;DHT22;12094;50.822;4.376;2022-09-09T05:41:48;15.40;99.90
23827;DHT22;12094;50.822;4.376;2022-09-09T05:44:17;15.30;99.90
23827;DHT22;12094;50.822;4.376;2022-09-09T05:46:47;15.30;99.90
23827;DHT22;12094;50.822;4.376;2022-09-09T05:49:17;15.30;99.90
23827;DHT22;12094;50.822;4.376;2022-09-09T05:51:45;15.30;99.90
23827;DHT22;12094;50.822;4.376;2022-09-09T05:54:14;15.30;99.90
23827;DHT22;12094;50.822;4.376;2022-09-09T05:56:46;15.30;99.90
23827;DHT22;12094;50.822;4.376;2022-09-09T05:59:20;15.40;99.90
23827;DHT22;12094;50.822;4.376;2022-09-09T06:01:51;15.40;99.90
23827;DHT22;12094;50.822;4.376;2022-09-09T06:04:25;15.40;99.90
23827;DHT22;12094;50.822;4.376;2022-09-09T06:06:53;15.40;99.90
23827;DHT22;12094;50.822;4.376;2022-09-09T06:09:24;15.40;99.90
23827;DHT22;12094;50.822;4.376;2022-09-09T06:11:51;15.50;99.90
23827;DHT22;12094;50.822;4.376;2022-09-09T06:14:23;15.50;99.90
23827;DHT22;12094;50.822;4.376;2022-09-09T06:16:52;15.60;99.90
23827;DHT22;12094;50.822;4.376;2022-09-09T06:19:23;15.60;99.90
23827;DHT22;12094;50.822;4.376;2022-09-09T06:21:51;15.60;99.90
23827;DHT22;12094;50.822;4.376;2022-09-09T06:24:17;15.60;99.90
23827;DHT22;12094;50.822;4.376;2022-09-09T06:26:46;15.70;99.90
23827;DHT22;12094;50.822;4.376;2022-09-09T06:29:19;15.70;99.90
23827;DHT22;12094;50.822;4.376;2022-09-09T06:31:47;15.60;99.90
23827;DHT22;12094;50.822;4.376;2022-09-09T06:34:22;15.70;99.90
23827;DHT22;12094;50.822;4.376;2022-09-09T06:36:53;15.80;99.90
23827;DHT22;12094;50.822;4.376;2022-09-09T06:39:21;15.80;99.90
23827;DHT22;12094;50.822;4.376;2022-09-09T06:41:50;15.70;99.90
23827;DHT22;12094;50.822;4.376;2022-09-09T06:44:58;15.70;99.90
23827;DHT22;12094;50.822;4.376;2022-09-09T06:47:49;15.80;99.90
23827;DHT22;12094;50.822;4.376;2022-09-09T06:50:19;15.70;99.90
23827;DHT22;12094;50.822;4.376;2022-09-09T06:52:49;15.80;99.90
23827;DHT22;12094;50.822;4.376;2022-09-09T06:55:17;15.80;99.90
23827;DHT22;12094;50.822;4.376;2022-09-09T06:57:46;15.80;99.90
23827;DHT22;12094;50.822;4.376;2022-09-09T07:00:19;15.90;99.90
23827;DHT22;12094;50.822;4.376;2022-09-09T07:02:46;16.00;99.90
23827;DHT22;12094;50.822;4.376;2022-09-09T07:05:14;16.10;99.90
23827;DHT22;12094;50.822;4.376;2022-09-09T07:07:44;16.10;99.90
23827;DHT22;12094;50.822;4.376;2022-09-09T07:10:13;16.20;99.90
23827;DHT22;12094;50.822;4.376;2022-09-09T07:12:40;16.10;99.90
23827;DHT22;12094;50.822;4.376;2022-09-09T07:15:10;16.20;99.90
23827;DHT22;12094;50.822;4.376;2022-09-09T07:17:40;16.20;99.90
23827;DHT22;12094;50.822;4.376;2022-09-09T07:20:07;16.20;99.90
23827;DHT22;12094;50.822;4.376;2022-09-09T07:22:35;16.20;99.90
23827;DHT22;12094;50.822;4.376;2022-09-09T07:25:02;16.20;99.90
23827;DHT22;12094;50.822;4.376;2022-09-09T07:27:29;16.00;99.90
23827;DHT22;12094;50.822;4.376;2022-09-09T07:29:57;16.10;99.90
23827;DHT22;12094;50.822;4.376;2022-09-09T07:32:24;16.10;99.90
23827;DHT22;12094;50.822;4.376;2022-09-09T07:34:52;16.10;99.90
23827;DHT22;12094;50.822;4.376;2022-09-09T07:37:19;16.10;99.90
23827;DHT22;12094;50.822;4.376;2022-09-09T07:39:48;16.10;99.90
23827;DHT22;12094;50.822;4.376;2022-09-09T07:42:18;16.00;99.90
23827;DHT22;12094;50.822;4.376;2022-09-09T07:44:46;15.80;99.90
23827;DHT22;12094;50.822;4.376;2022-09-09T07:47:16;15.80;99.90
23827;DHT22;12094;50.822;4.376;2022-09-09T07:49:46;15.70;99.90
23827;DHT22;12094;50.822;4.376;2022-09-09T07:52:21;15.60;99.90
23827;DHT22;12094;50.822;4.376;2022-09-09T07:54:52;15.60;99.90
23827;DHT22;12094;50.822;4.376;2022-09-09T07:57:19;15.70;99.90
23827;DHT22;12094;50.822;4.376;2022-09-09T07:59:46;15.70;99.90
23827;DHT22;12094;50.822;4.376;2022-09-09T08:02:13;15.70;99.90
23827;DHT22;12094;50.822;4.376;2022-09-09T08:04:45;15.80;99.90
23827;DHT22;12094;50.822;4.376;2022-09-09T08:07:16;16.00;99.90
23827;DHT22;12094;50.822;4.376;2022-09-09T08:09:50;16.00;99.90
23827;DHT22;12094;50.822;4.376;2022-09-09T08:12:36;16.10;99.90
23827;DHT22;12094;50.822;4.376;2022-09-09T08:15:04;16.30;99.90
23827;DHT22;12094;50.822;4.376;2022-09-09T08:17:32;16.40;99.90
23827;DHT22;12094;50.822;4.376;2022-09-09T08:20:04;16.50;99.90
23827;DHT22;12094;50.822;4.376;2022-09-09T08:22:32;16.50;99.90
23827;DHT22;12094;50.822;4.376;2022-09-09T08:25:00;16.50;99.90
23827;DHT22;12094;50.822;4.376;2022-09-09T08:27:31;16.50;99.90
23827;DHT22;12094;50.822;4.376;2022-09-09T08:29:59;16.70;99.90
23827;DHT22;12094;50.822;4.376;2022-09-09T08:32:29;16.70;99.90
23827;DHT22;12094;50.822;4.376;2022-09-09T08:34:56;16.70;99.90
23827;DHT22;12094;50.822;4.376;2022-09-09T08:37:28;16.80;99.90
23827;DHT22;12094;50.822;4.376;2022-09-09T08:39:55;16.60;99.90
23827;DHT22;12094;50.822;4.376;2022-09-09T08:42:52;16.50;99.90
23827;DHT22;12094;50.822;4.376;2022-09-09T08:45:33;16.50;99.90
23827;DHT22;12094;50.822;4.376;2022-09-09T08:50:38;16.30;99.90
23827;DHT22;12094;50.822;4.376;2022-09-09T08:53:28;16.20;99.90
23827;DHT22;12094;50.822;4.376;2022-09-09T08:56:09;16.20;99.90
23827;DHT22;12094;50.822;4.376;2022-09-09T08:58:48;16.30;99.90
23827;DHT22;12094;50.822;4.376;2022-09-09T09:06:58;16.50;99.90
23827;DHT22;12094;50.822;4.376;2022-09-09T09:12:19;16.40;99.90
23827;DHT22;12094;50.822;4.376;2022-09-09T09:14:48;16.40;99.90
23827;DHT22;12094;50.822;4.376;2022-09-09T09:17:17;16.20;99.90
23827;DHT22;12094;50.822;4.376;2022-09-09T09:19:47;16.20;99.90
23827;DHT22;12094;50.822;4.376;2022-09-09T09:22:41;16.20;99.90
23827;DHT22;12094;50.822;4.376;2022-09-09T09:25:21;16.10;99.90
23827;DHT22;12094;50.822;4.376;2022-09-09T09:31:08;16.10;99.90
23827;DHT22;12094;50.822;4.376;2022-09-09T09:33:56;16.00;99.90
23827;DHT22;12094;50.822;4.376;2022-09-09T09:36:42;16.00;99.90
23827;DHT22;12094;50.822;4.376;2022-09-09T09:39:25;16.10;99.90
23827;DHT22;12094;50.822;4.376;2022-09-09T09:42:14;16.00;99.90
23827;DHT22;12094;50.822;4.376;2022-09-09T09:44:48;16.10;99.90
23827;DHT22;12094;50.822;4.376;2022-09-09T09:47:20;16.10;99.90
23827;DHT22;12094;50.822;4.376;2022-09-09T09:50:19;16.10;99.90
23827;DHT22;12094;50.822;4.376;2022-09-09T09:52:58;16.20;99.90
23827;DHT22;12094;50.822;4.376;2022-09-09T09:55:29;16.30;99.90
23827;DHT22;12094;50.822;4.376;2022-09-09T09:58:03;16.20;99.90
23827;DHT22;12094;50.822;4.376;2022-09-09T10:00:32;16.30;99.90
23827;DHT22;12094;50.822;4.376;2022-09-09T10:03:28;16.20;99.90
23827;DHT22;12094;50.822;4.376;2022-09-09T10:05:57;16.30;99.90
23827;DHT22;12094;50.822;4.376;2022-09-09T10:08:26;16.40;99.90
23827;DHT22;12094;50.822;4.376;2022-09-09T10:11:23;16.40;99.90
23827;DHT22;12094;50.822;4.376;2022-09-09T10:14:21;16.40;99.90
23827;DHT22;12094;50.822;4.376;2022-09-09T10:19:42;16.30;99.90
23827;DHT22;12094;50.822;4.376;2022-09-09T10:22:27;16.20;99.90
23827;DHT22;12094;50.822;4.376;2022-09-09T10:25:12;16.20;99.90
23827;DHT22;12094;50.822;4.376;2022-09-09T10:31:04;16.30;99.90
23827;DHT22;12094;50.822;4.376;2022-09-09T10:36:49;16.60;99.90
23827;DHT22;12094;50.822;4.376;2022-09-09T10:39:37;16.70;99.90
23827;DHT22;12094;50.822;4.376;2022-09-09T10:42:16;16.80;99.90
23827;DHT22;12094;50.822;4.376;2022-09-09T10:45:07;17.00;99.90
23827;DHT22;12094;50.822;4.376;2022-09-09T10:56:01;17.10;99.90
23827;DHT22;12094;50.822;4.376;2022-09-09T10:58:43;17.10;99.90
23827;DHT22;12094;50.822;4.376;2022-09-09T11:01:37;17.10;99.90
23827;DHT22;12094;50.822;4.376;2022-09-09T11:04:16;17.20;99.90
23827;DHT22;12094;50.822;4.376;2022-09-09T11:06:48;17.30;99.90
23827;DHT22;12094;50.822;4.376;2022-09-09T11:09:22;17.40;99.90
23827;DHT22;12094;50.822;4.376;2022-09-09T11:11:55;17.50;99.90
23827;DHT22;12094;50.822;4.376;2022-09-09T11:14:35;17.40;99.90
23827;DHT22;12094;50.822;4.376;2022-09-09T11:17:45;17.50;99.90
23827;DHT22;12094;50.822;4.376;2022-09-09T11:20:14;17.70;99.90
23827;DHT22;12094;50.822;4.376;2022-09-09T11:22:52;17.90;99.90
23827;DHT22;12094;50.822;4.376;2022-09-09T11:25:28;18.00;99.90
23827;DHT22;12094;50.822;4.376;2022-09-09T11:30:58;18.00;99.90
23827;DHT22;12094;50.822;4.376;2022-09-09T11:34:19;18.00;99.90
23827;DHT22;12094;50.822;4.376;2022-09-09T11:39:38;17.80;99.90
23827;DHT22;12094;50.822;4.376;2022-09-09T11:44:41;17.70;99.90
23827;DHT22;12094;50.822;4.376;2022-09-09T11:49:51;17.80;99.90
23827;DHT22;12094;50.822;4.376;2022-09-09T11:52:34;17.90;99.90
23827;DHT22;12094;50.822;4.376;2022-09-09T11:58:00;17.90;99.90
23827;DHT22;12094;50.822;4.376;2022-09-09T12:00:40;17.90;99.90
23827;DHT22;12094;50.822;4.376;2022-09-09T12:03:34;17.80;99.90
23827;DHT22;12094;50.822;4.376;2022-09-09T12:06:28;17.80;99.90
23827;DHT22;12094;50.822;4.376;2022-09-09T12:09:18;17.70;99.90
23827;DHT22;12094;50.822;4.376;2022-09-09T12:11:46;17.70;99.90
23827;DHT22;12094;50.822;4.376;2022-09-09T12:19:41;17.80;99.90
23827;DHT22;12094;50.822;4.376;2022-09-09T12:22:27;17.70;99.90
23827;DHT22;12094;50.822;4.376;2022-09-09T12:25:26;17.70;99.90
23827;DHT22;12094;50.822;4.376;2022-09-09T12:28:15;17.80;99.90
23827;DHT22;12094;50.822;4.376;2022-09-09T12:33:39;17.90;99.90
23827;DHT22;12094;50.822;4.376;2022-09-09T12:36:14;18.20;99.90
23827;DHT22;12094;50.822;4.376;2022-09-09T12:38:43;18.30;99.90
23827;DHT22;12094;50.822;4.376;2022-09-09T12:41:21;18.30;99.90
23827;DHT22;12094;50.822;4.376;2022-09-09T12:43:49;18.30;99.90
23827;DHT22;12094;50.822;4.376;2022-09-09T12:46:36;18.20;99.90
23827;DHT22;12094;50.822;4.376;2022-09-09T12:49:04;18.40;99.90
23827;DHT22;12094;50.822;4.376;2022-09-09T12:51:33;18.60;99.90
23827;DHT22;12094;50.822;4.376;2022-09-09T12:54:00;18.70;99.90
23827;DHT22;12094;50.822;4.376;2022-09-09T12:56:31;18.70;99.90
23827;DHT22;12094;50.822;4.376;2022-09-09T12:59:00;18.90;99.90
23827;DHT22;12094;50.822;4.376;2022-09-09T13:01:29;19.20;99.90
23827;DHT22;12094;50.822;4.376;2022-09-09T13:03:57;19.50;99.90
23827;DHT22;12094;50.822;4.376;2022-09-09T13:06:27;19.40;99.90
23827;DHT22;12094;50.822;4.376;2022-09-09T13:08:58;19.40;99.90
23827;DHT22;12094;50.822;4.376;2022-09-09T13:11:33;19.00;99.90
23827;DHT22;12094;50.822;4.376;2022-09-09T13:14:02;19.20;99.90
23827;DHT22;12094;50.822;4.376;2022-09-09T13:16:34;19.30;99.90
23827;DHT22;12094;50.822;4.376;2022-09-09T13:19:13;19.10;99.90
23827;DHT22;12094;50.822;4.376;2022-09-09T13:21:42;19.00;99.90
23827;DHT22;12094;50.822;4.376;2022-09-09T13:24:31;18.90;99.90
23827;DHT22;12094;50.822;4.376;2022-09-09T13:29:31;19.30;99.90
23827;DHT22;12094;50.822;4.376;2022-09-09T13:32:16;19.50;99.90
23827;DHT22;12094;50.822;4.376;2022-09-09T13:34:58;19.80;99.90
23827;DHT22;12094;50.822;4.376;2022-09-09T13:37:37;20.20;99.90
23827;DHT22;12094;50.822;4.376;2022-09-09T13:40:18;20.40;99.90
23827;DHT22;12094;50.822;4.376;2022-09-09T13:42:46;20.30;99.90
23827;DHT22;12094;50.822;4.376;2022-09-09T13:45:20;20.10;99.90
23827;DHT22;12094;50.822;4.376;2022-09-09T13:47:48;20.20;99.90
23827;DHT22;12094;50.822;4.376;2022-09-09T13:50:20;20.10;99.90
23827;DHT22;12094;50.822;4.376;2022-09-09T13:52:54;20.10;99.90
23827;DHT22;12094;50.822;4.376;2022-09-09T13:55:23;20.10;99.90
23827;DHT22;12094;50.822;4.376;2022-09-09T14:00:18;19.90;99.90
23827;DHT22;12094;50.822;4.376;2022-09-09T14:02:47;19.90;99.90
23827;DHT22;12094;50.822;4.376;2022-09-09T14:05:16;19.80;99.90
23827;DHT22;12094;50.822;4.376;2022-09-09T14:07:44;19.70;99.90
23827;DHT22;12094;50.822;4.376;2022-09-09T14:10:16;19.90;99.90
23827;DHT22;12094;50.822;4.376;2022-09-09T14:12:43;20.20;99.90
23827;DHT22;12094;50.822;4.376;2022-09-09T14:15:11;20.20;99.90
23827;DHT22;12094;50.822;4.376;2022-09-09T14:17:40;20.20;99.90
23827;DHT22;12094;50.822;4.376;2022-09-09T14:20:09;20.00;99.90
23827;DHT22;12094;50.822;4.376;2022-09-09T14:22:38;19.90;99.90
23827;DHT22;12094;50.822;4.376;2022-09-09T14:25:07;19.70;99.90
23827;DHT22;12094;50.822;4.376;2022-09-09T14:27:34;19.70;99.90
23827;DHT22;12094;50.822;4.376;2022-09-09T14:30:01;19.80;99.90
23827;DHT22;12094;50.822;4.376;2022-09-09T14:32:29;19.90;99.90
23827;DHT22;12094;50.822;4.376;2022-09-09T14:34:56;19.90;99.90
23827;DHT22;12094;50.822;4.376;2022-09-09T14:37:22;19.80;99.90
23827;DHT22;12094;50.822;4.376;2022-09-09T14:39:50;19.80;99.90
23827;DHT22;12094;50.822;4.376;2022-09-09T14:42:18;19.70;99.90
23827;DHT22;12094;50.822;4.376;2022-09-09T14:44:46;19.60;99.90
23827;DHT22;12094;50.822;4.376;2022-09-09T14:47:14;19.80;99.90
23827;DHT22;12094;50.822;4.376;2022-09-09T14:49:42;19.70;99.90
23827;DHT22;12094;50.822;4.376;2022-09-09T14:52:13;19.70;99.90
23827;DHT22;12094;50.822;4.376;2022-09-09T14:54:42;19.70;99.90
23827;DHT22;12094;50.822;4.376;2022-09-09T14:57:10;19.70;99.90
23827;DHT22;12094;50.822;4.376;2022-09-09T14:59:37;19.90;99.90
23827;DHT22;12094;50.822;4.376;2022-09-09T15:02:05;19.90;99.90
23827;DHT22;12094;50.822;4.376;2022-09-09T15:04:33;20.00;99.90
23827;DHT22;12094;50.822;4.376;2022-09-09T15:07:00;20.10;99.90
23827;DHT22;12094;50.822;4.376;2022-09-09T15:09:27;20.20;99.90
23827;DHT22;12094;50.822;4.376;2022-09-09T15:11:54;20.10;99.90
23827;DHT22;12094;50.822;4.376;2022-09-09T15:14:22;20.00;99.90
23827;DHT22;12094;50.822;4.376;2022-09-09T15:16:52;20.20;99.90
23827;DHT22;12094;50.822;4.376;2022-09-09T15:19:21;20.20;99.90
23827;DHT22;12094;50.822;4.376;2022-09-09T15:21:48;20.20;99.90
23827;DHT22;12094;50.822;4.376;2022-09-09T15:24:16;20.30;99.90
23827;DHT22;12094;50.822;4.376;2022-09-09T15:26:43;20.20;99.90
23827;DHT22;12094;50.822;4.376;2022-09-09T15:29:11;20.00;99.90
23827;DHT22;12094;50.822;4.376;2022-09-09T15:31:40;19.80;99.90
23827;DHT22;12094;50.822;4.376;2022-09-09T15:34:09;19.80;99.90
23827;DHT22;12094;50.822;4.376;2022-09-09T15:36:38;19.70;99.90
23827;DHT22;12094;50.822;4.376;2022-09-09T15:39:07;19.60;99.90
23827;DHT22;12094;50.822;4.376;2022-09-09T15:41:34;19.50;99.90
23827;DHT22;12094;50.822;4.376;2022-09-09T15:44:02;19.40;99.90
23827;DHT22;12094;50.822;4.376;2022-09-09T15:46:37;19.50;99.90
23827;DHT22;12094;50.822;4.376;2022-09-09T15:49:12;19.50;99.90
23827;DHT22;12094;50.822;4.376;2022-09-09T15:51:43;19.60;99.90
23827;DHT22;12094;50.822;4.376;2022-09-09T15:54:13;19.60;99.90
23827;DHT22;12094;50.822;4.376;2022-09-09T15:56:40;19.40;99.90
23827;DHT22;12094;50.822;4.376;2022-09-09T15:59:07;19.50;99.90
23827;DHT22;12094;50.822;4.376;2022-09-09T16:01:35;19.70;99.90
23827;DHT22;12094;50.822;4.376;2022-09-09T16:04:03;19.70;99.90
23827;DHT22;12094;50.822;4.376;2022-09-09T16:06:31;19.70;99.90
23827;DHT22;12094;50.822;4.376;2022-09-09T16:09:02;19.60;99.90
23827;DHT22;12094;50.822;4.376;2022-09-09T16:11:34;19.50;99.90
23827;DHT22;12094;50.822;4.376;2022-09-09T16:14:02;19.50;99.90
23827;DHT22;12094;50.822;4.376;2022-09-09T16:16:30;19.70;99.90
23827;DHT22;12094;50.822;4.376;2022-09-09T16:19:00;19.50;99.90
23827;DHT22;12094;50.822;4.376;2022-09-09T16:21:29;19.40;99.90
23827;DHT22;12094;50.822;4.376;2022-09-09T16:23:58;19.40;99.90
23827;DHT22;12094;50.822;4.376;2022-09-09T16:26:29;19.40;99.90
23827;DHT22;12094;50.822;4.376;2022-09-09T16:28:57;19.20;99.90
23827;DHT22;12094;50.822;4.376;2022-09-09T16:31:29;18.60;99.90
23827;DHT22;12094;50.822;4.376;2022-09-09T16:33:57;17.90;99.90
23827;DHT22;12094;50.822;4.376;2022-09-09T16:36:26;17.60;99.90
23827;DHT22;12094;50.822;4.376;2022-09-09T16:38:58;17.60;99.90
23827;DHT22;12094;50.822;4.376;2022-09-09T16:41:29;17.60;99.90
23827;DHT22;12094;50.822;4.376;2022-09-09T16:44:04;17.60;99.90
23827;DHT22;12094;50.822;4.376;2022-09-09T16:46:37;17.70;99.90
23827;DHT22;12094;50.822;4.376;2022-09-09T16:49:08;17.80;99.90
23827;DHT22;12094;50.822;4.376;2022-09-09T16:51:41;17.90;99.90
23827;DHT22;12094;50.822;4.376;2022-09-09T16:54:09;17.90;99.90
23827;DHT22;12094;50.822;4.376;2022-09-09T16:56:40;17.80;99.90
23827;DHT22;12094;50.822;4.376;2022-09-09T16:59:19;17.70;99.90
23827;DHT22;12094;50.822;4.376;2022-09-09T17:01:50;17.60;99.90
23827;DHT22;12094;50.822;4.376;2022-09-09T17:04:24;17.50;99.90
23827;DHT22;12094;50.822;4.376;2022-09-09T17:06:53;17.30;99.90
23827;DHT22;12094;50.822;4.376;2022-09-09T17:09:21;17.30;99.90
23827;DHT22;12094;50.822;4.376;2022-09-09T17:11:49;17.40;99.90
23827;DHT22;12094;50.822;4.376;2022-09-09T17:14:19;17.40;99.90
23827;DHT22;12094;50.822;4.376;2022-09-09T17:16:49;17.40;99.90
23827;DHT22;12094;50.822;4.376;2022-09-09T17:19:16;17.40;99.90
23827;DHT22;12094;50.822;4.376;2022-09-09T17:21:44;17.50;99.90
23827;DHT22;12094;50.822;4.376;2022-09-09T17:24:34;17.50;99.90
23827;DHT22;12094;50.822;4.376;2022-09-09T17:27:00;17.60;99.90
23827;DHT22;12094;50.822;4.376;2022-09-09T17:29:29;17.60;99.90
23827;DHT22;12094;50.822;4.376;2022-09-09T17:31:57;17.70;99.90
23827;DHT22;12094;50.822;4.376;2022-09-09T17:34:24;17.80;99.90
23827;DHT22;12094;50.822;4.376;2022-09-09T17:36:51;17.80;99.90
23827;DHT22;12094;50.822;4.376;2022-09-09T17:39:19;17.80;99.90